Архив погоды в Поронайске

Метеограмма Поронайск
Четверг, 19 Сентября
Время местн. Темп Ветер Видим Явления Облачность нижн/средн/верх Атм. давл. Влжн Точка росы ВНГО R Сост. почвы Tg s
Напр Скр Прв ур.ст ур.м изм
22:00 +3.8° С 2 3 10 км - переменная облачность 750 751 +1.4 94% +2.9° 1 км - - - -
19:00 +8.3° З,Ю-З 4 6 20 км - облачно с прояснениями 749 750 +0.4 79% +4.9° 1 км 0 - - -
16:00 +11° Ю 6 8 20 км небо без изменений {ливневые осадки} переменная облачность 749 749 -0.4 69% +5.5° 1 км - - - -
13:00 +9.8° Ю 8 12 20 км слабый ливневый дождь облачно с прояснениями 749 750 +0.5 73% +5.2° 1 км - - - -
10:00 +11.4° Ю,Ю-З 7 9 20 км - переменная облачность 749 749 -0.4 65% +5° 1 км - - - -
07:00 +7.1° З 3 4 20 км - переменная облачность 749 750 +1 88% +5.3° 1 км 8 Сырая (есть малые или большие лужи) - -
04:00 +10.5° З 4 22 20 км небо без изменений {ливневые осадки} облачно 748 749 -2 90% +8.9° 1 км - - - -
01:00 +11.9° В,Ю-В 14 21 10 км слабый ливневый дождь облачно 750 751 -4.8 86% +9.6° 1 км - - - -
Среда, 18 Сентября
Время местн. Темп Ветер Видим Явления Облачность нижн/средн/верх Атм. давл. Влжн Точка росы ВНГО R Сост. почвы Tg s
Напр Скр Прв ур.ст ур.м изм
22:00 +12.6° Ю-В 9 14 20 км - облачно 755 756 -1.4 77% +8.6° 1 км - - - -
19:00 +13.1° Ю-В 7 12 20 км - облачно 756 757 -1.2 66% +6.8° 1 км 0 - - -
16:00 +14.3° Ю 6 10 20 км - облачно с прояснениями 757 758 -1.4 72% +9.3° 1.5 км - - - -
13:00 +15° Ю 5 7 20 км - переменная облачность 759 760 -1.4 76% +10.8° 1.5 км - - - -
10:00 +12.4° В 1 3 20 км - незначительная облачность 760 761 -0.5 68% +6.6° - - - - -
07:00 +1° С 2 2 20 км - ясно 761 762 -0.1 94% +0.1° более 2.5 км 0 Влажная (без луж) - -
04:00 +0.2° С 3 3 20 км - ясно 761 762 -0.1 94% -0.6° более 2.5 км - - - -
01:00 +1° С,С-З 2 3 20 км - ясно 761 761 +0.9 90% -0.5° более 2.5 км - - - -
Вторник, 17 Сентября
Время местн. Темп Ветер Видим Явления Облачность нижн/средн/верх Атм. давл. Влжн Точка росы ВНГО R Сост. почвы Tg s
Напр Скр Прв ур.ст ур.м изм
22:00 +3.7° С-З 1 2 20 км - ясно 760 761 +1.3 80% +0.5° более 2.5 км - - - -
19:00 +11.9° С-З 2 4 20 км - переменная облачность 758 759 +2.5 51% +2° 1 км 0 - - -
16:00 +17.5° С 3 5 20 км - переменная облачность 756 757 +0.7 43% +4.7° 1 км - - - -
13:00 +18.4° Ю 2 4 20 км - переменная облачность 755 756 -0.7 61% +10.8° 1 км - - - -
10:00 +17.4° С 4 8 20 км - незначительная облачность 756 757 +0.1 64% +10.5° 1.5 км - - - -
07:00 +8.3° С 2 3 20 км - ясно 756 757 +0.5 99% +8.2° более 2.5 км 0 Влажная (без луж) - -
04:00 +8.7° С,С-З 2 3 10 км небо без изменений {туман} ясно 756 756 -0.4 99% +8.6° более 2.5 км - - - -
01:00 +12.3° С 2 4 2 км дымка {туман} облачно 756 757 -0.6 99% +12.1° 200 м - - - -
Понедельник, 16 Сентября
Время местн. Темп Ветер Видим Явления Облачность нижн/средн/верх Атм. давл. Влжн Точка росы ВНГО R Сост. почвы Tg s
Напр Скр Прв ур.ст ур.м изм
22:00 +10.5° З 3 4 0.5 км туман усиливается неба не видно 757 757 +0.1 95% +9.8° - - - - -
19:00 +14.2° Ю 6 11 20 км - незначительная облачность 757 757 -0.2 91% +12.8° 1 км 0 - - -